Decoded METAR's for South Africa

 
 
Print Page

Back to Weather Page

 
 

Bloemfontein - South Africa, FABL

ADDS - TAFS form results

Aviation Digital Data Service (ADDS)

Output produced by TAFs form (0426 UTC 24 April 2018)
found at http://aviationweather.gov/adds/tafs/
 
METAR text: FABL 240400Z 20002KT CAVOK 06/05 Q1022 NOSIG
Conditions at: FABL (BLOEMFONTEIN/HER, ZA) observed 0400 UTC 24 April 2018
Temperature: 6.0°C (43°F)
Dewpoint: 5.0°C (41°F) [RH = 93%]
Pressure (altimeter): 30.18 inches Hg (1022.0 mb)
Winds: from the SSW (200 degrees) at 2 MPH (2 knots; 1.0 m/s)
Visibility: 6 or more miles (10+ km)
Ceiling: ceiling and visibility are OK
Clouds: unknown
Weather: no significant weather observed at this time

Array
Cape Town - South Africa, FACT

ADDS - TAFS form results

Aviation Digital Data Service (ADDS)

Output produced by TAFs form (0426 UTC 24 April 2018)
found at http://aviationweather.gov/adds/tafs/
 
METAR text: FACT 240400Z VRB02KT 9999 BKN030 15/13 Q1015 NOSIG
Conditions at: FACT (CAPETOWN/DF MALA, ZA) observed 0400 UTC 24 April 2018
Temperature: 15.0°C (59°F)
Dewpoint: 13.0°C (55°F) [RH = 88%]
Pressure (altimeter): 29.97 inches Hg (1015.0 mb)
Winds: variable direction winds at 2 MPH (2 knots; 1.0 m/s)
Visibility: 6 or more miles (10+ km)
Ceiling: 3000 feet AGL
Clouds: broken clouds at 3000 feet AGL
Weather: no significant weather observed at this time

Array
Durban - South Africa, FALE

ADDS - TAFS form results

Aviation Digital Data Service (ADDS)

Output produced by TAFs form (0426 UTC 24 April 2018)
found at http://aviationweather.gov/adds/tafs/
 
METAR text: FALE 240400Z VRB01KT CAVOK 14/11 Q1013 NOSIG
Conditions at: FALE (DURBAN SHAKA , ZA) observed 0400 UTC 24 April 2018
Temperature: 14.0°C (57°F)
Dewpoint: 11.0°C (52°F) [RH = 82%]
Pressure (altimeter): 29.91 inches Hg (1013.0 mb)
Winds: variable direction winds at 1 MPH (1 knots; 0.5 m/s)
Visibility: 6 or more miles (10+ km)
Ceiling: ceiling and visibility are OK
Clouds: unknown
Weather: no significant weather observed at this time

Array
East London - South Africa, FAEL

ADDS - TAFS form results

Aviation Digital Data Service (ADDS)

Output produced by TAFs form (0426 UTC 24 April 2018)
found at http://aviationweather.gov/adds/tafs/
 
METAR text: FAEL 240400Z 25014KT CAVOK 19/14 Q1013
Conditions at: FAEL (EAST LONDON/SCHO, ZA) observed 0400 UTC 24 April 2018
Temperature: 19.0°C (66°F)
Dewpoint: 14.0°C (57°F) [RH = 73%]
Pressure (altimeter): 29.91 inches Hg (1013.0 mb)
Winds: from the WSW (250 degrees) at 16 MPH (14 knots; 7.3 m/s)
Visibility: 6 or more miles (10+ km)
Ceiling: ceiling and visibility are OK
Clouds: unknown
Weather: no significant weather observed at this time

Array
George - South Africa, FAGG

ADDS - TAFS form results

Aviation Digital Data Service (ADDS)

Output produced by TAFs form (0426 UTC 24 April 2018)
found at http://aviationweather.gov/adds/tafs/
 
METAR text: FAGG 240400Z 32008KT 9999 OVC039 16/11 Q1015
Conditions at: FAGG (GEORGE/P. W. BOT, ZA) observed 0400 UTC 24 April 2018
Temperature: 16.0°C (61°F)
Dewpoint: 11.0°C (52°F) [RH = 72%]
Pressure (altimeter): 29.97 inches Hg (1015.0 mb)
Winds: from the NW (320 degrees) at 9 MPH (8 knots; 4.2 m/s)
Visibility: 6 or more miles (10+ km)
Ceiling: 3900 feet AGL
Clouds: overcast cloud deck at 3900 feet AGL
Weather: no significant weather observed at this time

Array
Hoedspruit - South Africa, FAHS

ADDS - TAFS form results

Aviation Digital Data Service (ADDS)

Output produced by TAFs form (0426 UTC 24 April 2018)
found at http://aviationweather.gov/adds/tafs/
 
METAR text: FAHS 240200Z AUTO 11003KT //// 01/M02 Q1018
Conditions at: FAHS (HOEDSPRUIT (SAAF, ZA) observed 0200 UTC 24 April 2018
Temperature: 1.0°C (34°F)
Dewpoint: -2.0°C (28°F) [RH = 80%]
Pressure (altimeter): 30.06 inches Hg (1018.0 mb)
Winds: from the ESE (110 degrees) at 3 MPH (3 knots; 1.6 m/s)
Visibility: missing
Ceiling: unknown
Clouds: missing
Weather: no significant weather observed at this time

Array
Lanseria - South Africa, FALA

ADDS - TAFS form results

Aviation Digital Data Service (ADDS)

Output produced by TAFs form (0426 UTC 24 April 2018)
found at http://aviationweather.gov/adds/tafs/
 
METAR text: FALA 240400Z 03004KT 290V060 CAVOK 10/06 Q1025 NOSIG
Conditions at: FALA (LANSERIA (CIV/MI, ZA) observed 0400 UTC 24 April 2018
Temperature: 10.0°C (50°F)
Dewpoint: 6.0°C (43°F) [RH = 76%]
Pressure (altimeter): 30.27 inches Hg (1025.0 mb)
Winds: from the NNE (30 degrees) at 5 MPH (4 knots; 2.1 m/s)
Visibility: 6 or more miles (10+ km)
Ceiling: ceiling and visibility are OK
Clouds: unknown
Weather: no significant weather observed at this time

Array
Makhado AFB - South Africa, FALM

ADDS - TAFS form results

Aviation Digital Data Service (ADDS)

Output produced by TAFs form (0426 UTC 24 April 2018)
found at http://aviationweather.gov/adds/tafs/
 
You entered "FALM"

Sorry, either there are no data available for your request or you did not enter any valid ICAO airport abbreviations.

See stations.txt for a list of known METAR and TAF locations. Then go back to the ADDS METARs or TAFs page and try again
 
Please try again and, if problems persist, then send mail to ncep.awc.adds@noaa.gov
Array
Mmabatho - South Africa, FAMM

ADDS - TAFS form results

Aviation Digital Data Service (ADDS)

Output produced by TAFs form (0426 UTC 24 April 2018)
found at http://aviationweather.gov/adds/tafs/
 
METAR text: FAMM 240400Z 06004KT CAVOK 09/05 Q1023 NOSIG
Conditions at: FAMM (MMABATHO INTL AR, ZA) observed 0400 UTC 24 April 2018
Temperature: 9.0°C (48°F)
Dewpoint: 5.0°C (41°F) [RH = 76%]
Pressure (altimeter): 30.21 inches Hg (1023.0 mb)
Winds: from the ENE (60 degrees) at 5 MPH (4 knots; 2.1 m/s)
Visibility: 6 or more miles (10+ km)
Ceiling: ceiling and visibility are OK
Clouds: unknown
Weather: no significant weather observed at this time

Array
ORT Johannesburg - South Africa, FAOR

ADDS - TAFS form results

Aviation Digital Data Service (ADDS)

Output produced by TAFs form (0426 UTC 24 April 2018)
found at http://aviationweather.gov/adds/tafs/
 
METAR text: FAOR 240400Z 21005KT CAVOK 12/04 Q1026 NOSIG
Conditions at: FAOR (JOHANNESBURG/TAM, ZA) observed 0400 UTC 24 April 2018
Temperature: 12.0°C (54°F)
Dewpoint: 4.0°C (39°F) [RH = 58%]
Pressure (altimeter): 30.30 inches Hg (1026.0 mb)
Winds: from the SSW (210 degrees) at 6 MPH (5 knots; 2.6 m/s)
Visibility: 6 or more miles (10+ km)
Ceiling: ceiling and visibility are OK
Clouds: unknown
Weather: no significant weather observed at this time

Array
Kruger Mpumalanga - South Africa, FAKN

ADDS - TAFS form results

Aviation Digital Data Service (ADDS)

Output produced by TAFs form (0426 UTC 24 April 2018)
found at http://aviationweather.gov/adds/tafs/
 
METAR text: FAKN 240400Z 27002KT CAVOK 16/15 Q1022 NOSIG
Conditions at: FAKN (KRUGER MPUMALANG, ZA) observed 0400 UTC 24 April 2018
Temperature: 16.0°C (61°F)
Dewpoint: 15.0°C (59°F) [RH = 94%]
Pressure (altimeter): 30.18 inches Hg (1022.0 mb)
Winds: from the W (270 degrees) at 2 MPH (2 knots; 1.0 m/s)
Visibility: 6 or more miles (10+ km)
Ceiling: ceiling and visibility are OK
Clouds: unknown
Weather: no significant weather observed at this time

Array
Pietermaritzburg - South Africa, FAPM

ADDS - TAFS form results

Aviation Digital Data Service (ADDS)

Output produced by TAFs form (0426 UTC 24 April 2018)
found at http://aviationweather.gov/adds/tafs/
 
You entered "FAPM"

Sorry, either there are no data available for your request or you did not enter any valid ICAO airport abbreviations.

See stations.txt for a list of known METAR and TAF locations. Then go back to the ADDS METARs or TAFs page and try again
 
Please try again and, if problems persist, then send mail to ncep.awc.adds@noaa.gov
Array
Polokwane - South Africa, FAPP

ADDS - TAFS form results

Aviation Digital Data Service (ADDS)

Output produced by TAFs form (0426 UTC 24 April 2018)
found at http://aviationweather.gov/adds/tafs/
 
METAR text: FAPP 240400Z 19002KT 7000 NSC 13/10 Q1022 NOSIG
Conditions at: FAPP (POLOKWANE INTL , ZA) observed 0400 UTC 24 April 2018
Temperature: 13.0°C (55°F)
Dewpoint: 10.0°C (50°F) [RH = 82%]
Pressure (altimeter): 30.18 inches Hg (1022.0 mb)
Winds: from the S (190 degrees) at 2 MPH (2 knots; 1.0 m/s)
Visibility: 4 miles (7 km)
Ceiling: at least 12,000 feet AGL
Clouds: sky clear below 12,000 feet AGL
Weather: no significant weather observed at this time

Array
Port Elizabeth - South Africa, FAPE

ADDS - TAFS form results

Aviation Digital Data Service (ADDS)

Output produced by TAFs form (0426 UTC 24 April 2018)
found at http://aviationweather.gov/adds/tafs/
 
METAR text: FAPE 240400Z 25016KT 9999 FEW025 16/14 Q1014 NOSIG
Conditions at: FAPE (PORT ELIZABETH , ZA) observed 0400 UTC 24 April 2018
Temperature: 16.0°C (61°F)
Dewpoint: 14.0°C (57°F) [RH = 88%]
Pressure (altimeter): 29.94 inches Hg (1014.0 mb)
Winds: from the WSW (250 degrees) at 18 MPH (16 knots; 8.3 m/s)
Visibility: 6 or more miles (10+ km)
Ceiling: at least 12,000 feet AGL
Clouds: few clouds at 2500 feet AGL
Weather: no significant weather observed at this time

Array
Richards Bay - South Africa, FATB

ADDS - TAFS form results

Aviation Digital Data Service (ADDS)

Output produced by TAFs form (0426 UTC 24 April 2018)
found at http://aviationweather.gov/adds/tafs/
 
You entered "FATB"

Sorry, either there are no data available for your request or you did not enter any valid ICAO airport abbreviations.

See stations.txt for a list of known METAR and TAF locations. Then go back to the ADDS METARs or TAFs page and try again
 
Please try again and, if problems persist, then send mail to ncep.awc.adds@noaa.gov
Array
Upington - South Africa, FAUP

ADDS - TAFS form results

Aviation Digital Data Service (ADDS)

Output produced by TAFs form (0426 UTC 24 April 2018)
found at http://aviationweather.gov/adds/tafs/
 
METAR text: FAUP 240400Z 21003KT CAVOK 12/03 Q1019 NOSIG
Conditions at: FAUP (UPINGTON/PIERRE , ZA) observed 0400 UTC 24 April 2018
Temperature: 12.0°C (54°F)
Dewpoint: 3.0°C (37°F) [RH = 54%]
Pressure (altimeter): 30.09 inches Hg (1019.0 mb)
Winds: from the SSW (210 degrees) at 3 MPH (3 knots; 1.6 m/s)
Visibility: 6 or more miles (10+ km)
Ceiling: ceiling and visibility are OK
Clouds: unknown
Weather: no significant weather observed at this time

Array
Wonderboom - South Africa, FAWB

ADDS - TAFS form results

Aviation Digital Data Service (ADDS)

Output produced by TAFs form (0426 UTC 24 April 2018)
found at http://aviationweather.gov/adds/tafs/
 
METAR text: FAWB 240400Z 18004KT CAVOK 14/M09 Q1022
Conditions at: FAWB (WONDERBOOM/PRETO, ZA) observed 0400 UTC 24 April 2018
Temperature: 14.0°C (57°F)
Dewpoint: -9.0°C (16°F) [RH = 19%]
Pressure (altimeter): 30.18 inches Hg (1022.0 mb)
Winds: from the S (180 degrees) at 5 MPH (4 knots; 2.1 m/s)
Visibility: 6 or more miles (10+ km)
Ceiling: ceiling and visibility are OK
Clouds: unknown
Weather: no significant weather observed at this time

Array